createdAt,value
2023-02-17T00:01:36.774Z,42.07
2023-02-17T00:04:06.509Z,42.50
2023-02-17T00:06:34.803Z,44.13
2023-02-17T00:09:03.349Z,45.00
2023-02-17T00:11:31.741Z,40.17
2023-02-17T00:14:00.354Z,39.37
2023-02-17T00:16:30.379Z,42.10
2023-02-17T00:19:00.744Z,35.60
2023-02-17T00:21:32.481Z,37.00
2023-02-17T00:24:01.264Z,36.83
2023-02-17T00:26:29.802Z,41.30
2023-02-17T00:29:00.201Z,41.07
2023-02-17T00:31:28.418Z,41.10
2023-02-17T00:33:57.436Z,36.13
2023-02-17T00:36:26.708Z,40.50
2023-02-17T00:38:58.028Z,38.00
2023-02-17T00:41:27.980Z,39.10
2023-02-17T00:43:56.711Z,39.77
2023-02-17T00:46:26.041Z,35.60
2023-02-17T00:48:54.985Z,37.30
2023-02-17T00:51:23.447Z,40.60
2023-02-17T00:53:51.886Z,34.00
2023-02-17T00:56:21.944Z,38.23
2023-02-17T00:58:50.052Z,40.80
2023-02-17T01:01:18.277Z,38.20
2023-02-17T01:03:46.850Z,40.57
2023-02-17T01:06:22.718Z,37.47
2023-02-17T01:08:51.380Z,42.27
2023-02-17T01:11:22.019Z,35.97
2023-02-17T01:13:50.513Z,42.20
2023-02-17T01:16:20.166Z,36.83
2023-02-17T01:18:48.182Z,36.27
2023-02-17T01:21:20.446Z,34.97
2023-02-17T01:23:50.401Z,41.00
2023-02-17T01:26:20.145Z,36.43
2023-02-17T01:28:51.000Z,35.50
2023-02-17T01:31:19.474Z,42.10
2023-02-17T01:33:47.823Z,41.20
2023-02-17T01:36:21.107Z,38.73
2023-02-17T01:38:49.669Z,39.80
2023-02-17T01:41:20.022Z,45.43
2023-02-17T01:44:08.901Z,39.67
2023-02-17T01:46:37.946Z,43.80
2023-02-17T01:49:14.414Z,41.90
2023-02-17T01:51:43.737Z,44.17
2023-02-17T01:54:17.228Z,44.80
2023-02-17T01:56:47.750Z,40.07
2023-02-17T01:59:21.103Z,41.30
2023-02-17T02:01:51.179Z,38.77
2023-02-17T02:04:22.799Z,36.70
2023-02-17T02:06:51.099Z,45.00
2023-02-17T02:09:24.148Z,43.03
2023-02-17T02:11:52.746Z,42.43
2023-02-17T02:14:23.676Z,43.53
2023-02-17T02:16:59.448Z,50.03
2023-02-17T02:20:08.675Z,42.47
2023-02-17T02:23:07.310Z,42.23
2023-02-17T02:25:55.534Z,46.83
2023-02-17T02:28:39.235Z,45.10
2023-02-17T02:31:26.078Z,51.33
2023-02-17T02:34:00.609Z,45.00
2023-02-17T02:36:33.994Z,41.67
2023-02-17T02:39:06.701Z,50.93
2023-02-17T02:41:39.468Z,42.90
2023-02-17T02:44:10.468Z,48.57
2023-02-17T02:46:38.994Z,44.97
2023-02-17T02:49:11.127Z,46.77
2023-02-17T02:51:50.635Z,39.00
2023-02-17T02:54:43.136Z,46.10
2023-02-17T02:57:22.300Z,36.10
2023-02-17T03:00:02.747Z,39.40
2023-02-17T03:02:36.144Z,39.37
2023-02-17T03:05:12.813Z,38.30
2023-02-17T03:07:47.657Z,36.73
2023-02-17T03:10:17.229Z,23.87
2023-02-17T03:12:45.616Z,33.60
2023-02-17T03:15:21.358Z,29.60
2023-02-17T03:17:49.464Z,18.13
2023-02-17T03:20:19.697Z,23.60
2023-02-17T03:22:49.619Z,28.63
2023-02-17T03:25:20.806Z,27.80
2023-02-17T03:27:49.184Z,25.10
2023-02-17T03:30:17.711Z,26.80
2023-02-17T03:32:47.648Z,29.13
2023-02-17T03:35:15.626Z,20.50
2023-02-17T03:37:45.589Z,20.00
2023-02-17T03:40:13.650Z,14.60
2023-02-17T03:42:42.300Z,20.23
2023-02-17T03:45:11.653Z,23.50
2023-02-17T03:47:40.389Z,22.17
2023-02-17T03:50:09.418Z,19.00
2023-02-17T03:52:38.243Z,19.53
2023-02-17T03:55:08.225Z,12.77
2023-02-17T03:57:36.912Z,15.13
2023-02-17T04:00:06.556Z,17.80
2023-02-17T04:02:34.719Z,18.90
2023-02-17T04:05:02.870Z,14.70
2023-02-17T04:07:31.557Z,19.13
2023-02-17T04:09:59.535Z,29.90
2023-02-17T04:12:29.040Z,14.57
2023-02-17T04:14:57.528Z,19.37
2023-02-17T04:17:25.795Z,17.07
2023-02-17T04:19:54.018Z,18.70
2023-02-17T04:22:22.703Z,22.30
2023-02-17T04:24:51.576Z,19.17
2023-02-17T04:27:20.342Z,17.73
2023-02-17T04:29:50.558Z,21.73
2023-02-17T04:32:18.843Z,20.60
2023-02-17T04:34:47.444Z,22.50
2023-02-17T04:37:16.153Z,19.27
2023-02-17T04:39:44.342Z,17.40
2023-02-17T04:42:12.241Z,17.70
2023-02-17T04:44:41.469Z,15.33
2023-02-17T04:47:10.737Z,19.57
2023-02-17T04:49:38.746Z,18.17
2023-02-17T04:52:07.871Z,18.70
2023-02-17T04:54:36.478Z,17.90
2023-02-17T04:57:04.465Z,17.97
2023-02-17T04:59:34.053Z,21.30
2023-02-17T05:02:02.366Z,21.53
2023-02-17T05:04:32.109Z,21.03
2023-02-17T05:07:00.565Z,23.37
2023-02-17T05:09:29.026Z,16.70
2023-02-17T05:11:57.805Z,28.53
2023-02-17T05:14:28.079Z,21.17
2023-02-17T05:16:56.617Z,25.10
2023-02-17T05:19:24.726Z,25.17
2023-02-17T05:21:54.673Z,27.20
2023-02-17T05:24:22.692Z,25.97
2023-02-17T05:26:50.554Z,24.43
2023-02-17T05:29:19.346Z,32.10
2023-02-17T05:31:48.271Z,27.83
2023-02-17T05:34:16.232Z,24.20
2023-02-17T05:36:44.701Z,29.80
2023-02-17T05:39:13.989Z,26.33
2023-02-17T05:41:41.881Z,18.90
2023-02-17T05:44:10.175Z,23.13
2023-02-17T05:46:38.436Z,23.43
2023-02-17T05:49:06.507Z,25.30
2023-02-17T05:51:35.916Z,22.27
2023-02-17T05:54:04.504Z,24.43
2023-02-17T05:56:33.979Z,23.03
2023-02-17T05:59:02.664Z,26.83
2023-02-17T06:01:30.764Z,31.87
2023-02-17T06:03:58.637Z,22.37
2023-02-17T06:06:27.687Z,18.40
2023-02-17T06:08:56.399Z,24.60
2023-02-17T06:11:25.173Z,34.33
2023-02-17T06:13:55.554Z,23.07
2023-02-17T06:16:24.639Z,21.80
2023-02-17T06:18:52.690Z,23.17
2023-02-17T06:21:21.121Z,19.23
2023-02-17T06:23:49.227Z,21.50
2023-02-17T06:26:18.657Z,19.87
2023-02-17T06:28:47.304Z,25.10
2023-02-17T06:31:16.995Z,21.43
2023-02-17T06:33:45.175Z,21.60
2023-02-17T06:36:13.681Z,27.23
2023-02-17T06:38:42.364Z,23.97
2023-02-17T06:41:10.729Z,21.27
2023-02-17T06:43:39.241Z,20.80
2023-02-17T06:46:07.635Z,19.27
2023-02-17T06:48:37.229Z,26.33
2023-02-17T06:51:06.387Z,24.00
2023-02-17T06:53:34.806Z,20.03
2023-02-17T06:56:02.955Z,21.63
2023-02-17T06:58:33.196Z,20.60
2023-02-17T07:01:01.422Z,36.73
2023-02-17T07:03:29.420Z,27.47
2023-02-17T07:06:00.736Z,21.80
2023-02-17T07:08:28.843Z,19.43
2023-02-17T07:10:57.012Z,20.83
2023-02-17T07:13:25.451Z,15.20
2023-02-17T07:15:53.720Z,19.70
2023-02-17T07:18:21.786Z,23.70
2023-02-17T07:20:50.546Z,23.90
2023-02-17T07:23:20.461Z,21.00
2023-02-17T07:25:48.687Z,16.43
2023-02-17T07:28:17.344Z,17.47
2023-02-17T07:30:45.827Z,19.13
2023-02-17T07:33:14.264Z,24.53
2023-02-17T07:35:44.483Z,21.20
2023-02-17T07:38:13.906Z,16.43
2023-02-17T07:40:43.842Z,19.00
2023-02-17T07:43:12.522Z,18.93
2023-02-17T07:45:40.912Z,21.30
2023-02-17T07:48:09.096Z,20.57
2023-02-17T07:50:37.639Z,22.07
2023-02-17T07:53:05.977Z,16.90
2023-02-17T07:55:34.384Z,26.47
2023-02-17T07:58:04.607Z,18.17
2023-02-17T08:00:32.853Z,19.50
2023-02-17T08:03:01.110Z,15.00
2023-02-17T08:05:30.048Z,22.40
2023-02-17T08:08:12.153Z,15.57
2023-02-17T08:10:58.345Z,15.90
2023-02-17T08:13:30.006Z,10.93
2023-02-17T08:15:59.843Z,12.53
2023-02-17T08:18:30.592Z,17.43
2023-02-17T08:21:01.138Z,14.93
2023-02-17T08:23:30.475Z,16.33
2023-02-17T08:25:59.956Z,19.30
2023-02-17T08:28:33.144Z,14.60
2023-02-17T08:31:03.095Z,18.33
2023-02-17T08:33:31.526Z,13.70
2023-02-17T08:36:00.168Z,12.30
2023-02-17T08:38:28.410Z,15.90
2023-02-17T08:40:56.933Z,18.20
2023-02-17T08:43:27.562Z,15.50
2023-02-17T08:45:57.066Z,13.23
2023-02-17T08:48:25.687Z,11.83
2023-02-17T08:50:54.304Z,22.00
2023-02-17T08:53:22.413Z,12.33
2023-02-17T08:55:50.514Z,11.70
2023-02-17T08:58:19.177Z,10.87
2023-02-17T09:00:47.231Z,10.57
2023-02-17T09:03:16.880Z,15.27
2023-02-17T09:05:45.387Z,18.10
2023-02-17T09:08:13.376Z,11.33
2023-02-17T09:10:41.316Z,9.10
2023-02-17T09:13:09.795Z,10.37
2023-02-17T09:15:38.137Z,20.00
2023-02-17T09:18:06.714Z,18.23
2023-02-17T09:20:37.384Z,16.43
2023-02-17T09:23:08.505Z,17.00
2023-02-17T09:25:36.703Z,9.10
2023-02-17T09:28:05.790Z,12.00
2023-02-17T09:30:34.437Z,13.60
2023-02-17T09:33:02.857Z,9.97
2023-02-17T09:35:32.109Z,7.80
2023-02-17T09:38:01.456Z,11.60
2023-02-17T09:40:44.641Z,13.10
2023-02-17T09:43:16.839Z,8.20
2023-02-17T09:45:51.659Z,7.87
2023-02-17T09:48:23.124Z,9.23
2023-02-17T09:50:57.304Z,15.73
2023-02-17T09:53:33.307Z,10.50
2023-02-17T09:56:06.847Z,11.83
2023-02-17T09:58:39.776Z,11.70
2023-02-17T10:01:12.762Z,13.07
2023-02-17T10:03:44.534Z,8.73
2023-02-17T10:06:16.826Z,8.43
2023-02-17T10:08:54.089Z,12.33
2023-02-17T10:11:29.465Z,12.13
2023-02-17T10:14:01.605Z,11.70
2023-02-17T10:16:34.743Z,12.73
2023-02-17T10:19:09.383Z,10.87
2023-02-17T10:21:42.809Z,10.83
2023-02-17T10:24:12.863Z,11.20
2023-02-17T10:26:54.102Z,10.67
2023-02-17T10:29:35.282Z,12.23
2023-02-17T10:32:19.806Z,9.87
2023-02-17T10:34:59.600Z,13.17
2023-02-17T10:37:38.902Z,13.40
2023-02-17T10:40:15.848Z,11.93
2023-02-17T10:42:44.438Z,14.07
2023-02-17T10:45:21.258Z,10.80
2023-02-17T10:47:50.145Z,15.13
2023-02-17T10:50:22.303Z,10.90
2023-02-17T10:52:52.670Z,12.07
2023-02-17T10:55:27.303Z,11.50
2023-02-17T10:58:00.946Z,12.33
2023-02-17T11:00:29.493Z,13.20
2023-02-17T11:02:57.685Z,10.50
2023-02-17T11:05:27.633Z,10.40
2023-02-17T11:08:01.737Z,11.77
2023-02-17T11:10:35.327Z,10.57
2023-02-17T11:13:06.488Z,13.23
2023-02-17T11:15:45.165Z,9.77
2023-02-17T11:18:21.942Z,14.10
2023-02-17T11:20:50.718Z,12.33
2023-02-17T11:23:28.003Z,15.53
2023-02-17T11:26:05.134Z,10.57
2023-02-17T11:28:33.520Z,47.97
2023-02-17T11:31:05.302Z,11.63
2023-02-17T11:33:36.816Z,15.30
2023-02-17T11:36:07.417Z,11.53
2023-02-17T11:38:44.776Z,11.10
2023-02-17T11:41:14.730Z,12.93
2023-02-17T11:43:53.866Z,16.83
2023-02-17T11:46:29.633Z,10.70
2023-02-17T11:49:33.326Z,11.40
2023-02-17T11:52:13.749Z,9.57
2023-02-17T11:54:57.990Z,14.03
2023-02-17T11:57:38.555Z,13.83
2023-02-17T12:00:19.356Z,11.03
2023-02-17T12:03:22.386Z,11.93
2023-02-17T12:06:02.961Z,13.90
2023-02-17T12:08:41.410Z,13.47
2023-02-17T12:11:19.561Z,12.47
2023-02-17T12:14:00.861Z,12.63
2023-02-17T12:16:40.002Z,10.40
2023-02-17T12:19:36.083Z,11.13
2023-02-17T12:22:17.391Z,10.70
2023-02-17T12:25:22.273Z,9.20
2023-02-17T12:28:01.529Z,12.70
2023-02-17T12:30:47.713Z,14.40
2023-02-17T12:33:35.994Z,11.20
2023-02-17T12:36:09.234Z,10.03
2023-02-17T12:38:42.879Z,13.63
2023-02-17T12:41:15.977Z,11.00
2023-02-17T12:43:49.370Z,12.67
2023-02-17T12:46:25.684Z,6.57
2023-02-17T12:48:58.577Z,10.00
2023-02-17T12:51:31.701Z,11.67
2023-02-17T12:54:06.120Z,6.63
2023-02-17T12:57:15.019Z,17.97
2023-02-17T12:59:45.365Z,10.73
2023-02-17T13:02:16.930Z,7.77
2023-02-17T13:04:47.222Z,8.63
2023-02-17T13:07:30.364Z,8.07
2023-02-17T13:09:59.605Z,8.70
2023-02-17T13:12:42.080Z,9.70
2023-02-17T13:15:29.939Z,7.97
2023-02-17T13:18:03.136Z,10.30
2023-02-17T13:20:56.974Z,12.30
2023-02-17T13:23:38.457Z,9.50
2023-02-17T13:26:31.942Z,8.13
2023-02-17T13:29:37.927Z,9.40
2023-02-17T13:32:08.925Z,6.83
2023-02-17T13:34:42.826Z,7.33
2023-02-17T13:37:20.690Z,8.23
2023-02-17T13:39:49.202Z,7.60
2023-02-17T13:42:40.150Z,9.00
2023-02-17T13:45:25.787Z,6.77
2023-02-17T13:47:55.916Z,8.63
2023-02-17T13:50:34.858Z,6.97
2023-02-17T13:53:07.610Z,7.00
2023-02-17T13:55:37.145Z,9.60
2023-02-17T13:58:05.440Z,7.17
2023-02-17T14:00:33.808Z,7.30
2023-02-17T14:03:13.197Z,6.63
2023-02-17T14:05:46.126Z,5.97
2023-02-17T14:08:20.666Z,8.47
2023-02-17T14:10:49.333Z,8.10
2023-02-17T14:13:18.181Z,7.70
2023-02-17T14:15:56.126Z,8.63
2023-02-17T14:18:33.794Z,7.10
2023-02-17T14:21:07.810Z,7.37
2023-02-17T14:23:45.911Z,8.30
2023-02-17T14:26:27.106Z,11.53
2023-02-17T14:28:56.766Z,8.20
2023-02-17T14:31:25.608Z,6.83
2023-02-17T14:33:55.476Z,7.03
2023-02-17T14:36:34.954Z,5.97
2023-02-17T14:39:05.670Z,5.50
2023-02-17T14:41:34.502Z,7.90
2023-02-17T14:44:03.299Z,6.67
2023-02-17T14:46:31.342Z,6.83
2023-02-17T14:48:59.993Z,7.33
2023-02-17T14:51:37.354Z,6.70
2023-02-17T14:54:13.888Z,6.57
2023-02-17T14:56:45.417Z,7.73
2023-02-17T14:59:13.457Z,9.30
2023-02-17T15:01:41.591Z,5.90
2023-02-17T15:04:10.120Z,6.33
2023-02-17T15:06:43.440Z,7.03
2023-02-17T15:09:15.378Z,6.23
2023-02-17T15:11:46.397Z,6.27
2023-02-17T15:14:16.468Z,6.80
2023-02-17T15:16:44.517Z,6.00
2023-02-17T15:19:13.498Z,5.70
2023-02-17T15:21:47.449Z,5.17
2023-02-17T15:24:18.384Z,6.00
2023-02-17T15:26:46.495Z,8.30
2023-02-17T15:29:18.129Z,5.50
2023-02-17T15:31:47.412Z,9.30
2023-02-17T15:34:18.657Z,7.50
2023-02-17T15:36:48.538Z,7.27
2023-02-17T15:39:18.891Z,9.57
2023-02-17T15:41:48.433Z,5.37
2023-02-17T15:44:20.127Z,5.50
2023-02-17T15:46:51.234Z,4.33
2023-02-17T15:49:19.788Z,4.47
2023-02-17T15:51:50.514Z,5.03
2023-02-17T15:54:19.590Z,4.93
2023-02-17T15:56:51.568Z,6.20
2023-02-17T15:59:22.795Z,5.07
2023-02-17T16:01:52.644Z,4.33
2023-02-17T16:04:21.292Z,8.53
2023-02-17T16:06:50.995Z,6.10
2023-02-17T16:09:20.729Z,6.60
2023-02-17T16:11:51.174Z,6.20
2023-02-17T16:14:27.345Z,5.43
2023-02-17T16:16:56.644Z,6.30
2023-02-17T16:19:25.100Z,6.93
2023-02-17T16:21:55.221Z,5.80
2023-02-17T16:24:23.635Z,5.57
2023-02-17T16:26:51.886Z,6.17
2023-02-17T16:29:23.623Z,5.77
2023-02-17T16:31:52.411Z,5.43
2023-02-17T16:34:23.349Z,6.87
2023-02-17T16:36:53.320Z,6.33
2023-02-17T16:39:24.036Z,5.30
2023-02-17T16:41:52.643Z,6.50
2023-02-17T16:44:23.184Z,5.40
2023-02-17T16:46:53.530Z,5.97
2023-02-17T16:49:25.985Z,9.40
2023-02-17T16:51:54.562Z,5.40
2023-02-17T16:54:24.234Z,5.70
2023-02-17T16:56:53.636Z,5.50
2023-02-17T16:59:23.638Z,5.57
2023-02-17T17:01:53.210Z,6.13
2023-02-17T17:04:25.130Z,5.07
2023-02-17T17:06:53.773Z,8.57
2023-02-17T17:09:26.003Z,5.47
2023-02-17T17:11:54.021Z,7.37
2023-02-17T17:14:22.313Z,5.13
2023-02-17T17:16:58.373Z,5.53
2023-02-17T17:19:26.430Z,5.17
2023-02-17T17:21:55.133Z,9.23
2023-02-17T17:24:25.514Z,4.80
2023-02-17T17:26:53.796Z,6.43
2023-02-17T17:29:23.268Z,4.27
2023-02-17T17:31:52.012Z,8.10
2023-02-17T17:34:20.414Z,7.33
2023-02-17T17:36:49.775Z,4.70
2023-02-17T17:39:20.823Z,7.60
2023-02-17T17:41:51.470Z,6.80
2023-02-17T17:44:21.011Z,4.60
2023-02-17T17:46:49.664Z,5.43
2023-02-17T17:49:18.561Z,5.87
2023-02-17T17:51:47.582Z,6.00
2023-02-17T17:54:15.993Z,5.07
2023-02-17T17:56:44.988Z,5.43
2023-02-17T17:59:15.655Z,5.60
2023-02-17T18:01:45.758Z,4.97
2023-02-17T18:04:14.104Z,5.40
2023-02-17T18:06:45.612Z,16.80
2023-02-17T18:09:30.637Z,5.90
2023-02-17T18:12:02.635Z,5.57
2023-02-17T18:14:32.360Z,6.97
2023-02-17T18:17:00.725Z,5.63
2023-02-17T18:19:30.541Z,5.47
2023-02-17T18:21:59.260Z,6.23
2023-02-17T18:24:28.147Z,6.83
2023-02-17T18:26:56.489Z,6.47
2023-02-17T18:29:24.410Z,6.43
2023-02-17T18:31:53.875Z,7.33
2023-02-17T18:34:22.461Z,6.70
2023-02-17T18:36:50.574Z,7.73
2023-02-17T18:39:18.798Z,5.87
2023-02-17T18:41:47.297Z,5.80
2023-02-17T18:44:15.343Z,6.23
2023-02-17T18:46:43.395Z,9.70
2023-02-17T18:49:13.271Z,10.50
2023-02-17T18:51:41.345Z,5.80
2023-02-17T18:54:10.989Z,7.03
2023-02-17T18:56:39.214Z,7.00
2023-02-17T18:59:07.438Z,6.87
2023-02-17T19:01:39.475Z,4.67
2023-02-17T19:04:09.579Z,5.80
2023-02-17T19:06:39.305Z,5.77
2023-02-17T19:09:07.508Z,6.03
2023-02-17T19:11:36.134Z,5.13
2023-02-17T19:14:04.973Z,4.33
2023-02-17T19:16:33.797Z,3.77
2023-02-17T19:19:03.204Z,4.60
2023-02-17T19:21:31.612Z,5.13
2023-02-17T19:24:01.185Z,3.50
2023-02-17T19:26:29.934Z,4.60
2023-02-17T19:28:57.841Z,7.00
2023-02-17T19:31:25.952Z,4.47
2023-02-17T19:33:54.498Z,4.37
2023-02-17T19:36:23.953Z,4.93
2023-02-17T19:38:52.331Z,3.20
2023-02-17T19:41:23.776Z,8.77
2023-02-17T19:43:51.986Z,4.20
2023-02-17T19:46:22.965Z,5.20
2023-02-17T19:48:51.722Z,4.50
2023-02-17T19:51:20.592Z,5.83
2023-02-17T19:53:49.704Z,5.97
2023-02-17T19:56:20.866Z,3.83
2023-02-17T19:58:51.978Z,6.73
2023-02-17T20:01:21.862Z,5.07
2023-02-17T20:03:50.552Z,5.63
2023-02-17T20:06:22.241Z,5.20
2023-02-17T20:08:54.726Z,4.40
2023-02-17T20:11:24.105Z,3.53
2023-02-17T20:13:54.552Z,7.53
2023-02-17T20:16:23.027Z,5.30
2023-02-17T20:18:52.534Z,7.23
2023-02-17T20:21:23.080Z,4.53
2023-02-17T20:23:53.067Z,5.40
2023-02-17T20:26:30.471Z,5.27
2023-02-17T20:29:01.807Z,6.07
2023-02-17T20:31:30.818Z,5.43
2023-02-17T20:34:01.523Z,5.03
2023-02-17T20:36:31.958Z,9.07
2023-02-17T20:39:00.932Z,9.60
2023-02-17T20:41:29.304Z,12.60
2023-02-17T20:44:02.072Z,4.83
2023-02-17T20:46:32.452Z,7.07
2023-02-17T20:49:01.510Z,5.13
2023-02-17T20:51:32.675Z,6.67
2023-02-17T20:54:03.304Z,6.87
2023-02-17T20:56:37.182Z,9.93
2023-02-17T20:59:08.322Z,6.53
2023-02-17T21:01:44.421Z,5.10
2023-02-17T21:04:17.419Z,5.90
2023-02-17T21:06:48.338Z,4.53
2023-02-17T21:09:18.654Z,7.00
2023-02-17T21:11:47.843Z,7.90
2023-02-17T21:14:32.101Z,6.60
2023-02-17T21:17:02.052Z,6.70
2023-02-17T21:19:33.484Z,5.30
2023-02-17T21:22:01.949Z,9.87
2023-02-17T21:24:30.288Z,5.63
2023-02-17T21:26:59.360Z,7.50
2023-02-17T21:29:27.782Z,5.47
2023-02-17T21:31:56.422Z,6.37
2023-02-17T21:34:26.923Z,4.80
2023-02-17T21:36:54.916Z,6.17
2023-02-17T21:39:23.586Z,6.70
2023-02-17T21:41:54.384Z,6.30
2023-02-17T21:44:40.087Z,6.30
2023-02-17T21:47:08.805Z,6.00
2023-02-17T21:49:38.446Z,6.03
2023-02-17T21:52:07.925Z,7.60
2023-02-17T21:54:36.413Z,7.20
2023-02-17T21:57:04.599Z,8.47
2023-02-17T21:59:33.190Z,8.13
2023-02-17T22:02:02.319Z,8.60
2023-02-17T22:04:30.333Z,7.00
2023-02-17T22:07:02.391Z,9.80
2023-02-17T22:09:30.483Z,8.70
2023-02-17T22:11:58.269Z,10.10
2023-02-17T22:14:26.659Z,9.27
2023-02-17T22:16:55.278Z,7.80
2023-02-17T22:19:31.359Z,11.77
2023-02-17T22:22:00.869Z,13.40
2023-02-17T22:24:29.609Z,8.77
2023-02-17T22:26:57.576Z,10.40
2023-02-17T22:29:26.368Z,10.40
2023-02-17T22:31:57.963Z,12.20
2023-02-17T22:34:27.574Z,11.83
2023-02-17T22:36:55.813Z,10.90
2023-02-17T22:39:26.033Z,8.03
2023-02-17T22:41:54.120Z,9.70
2023-02-17T22:44:22.012Z,8.87
2023-02-17T22:46:52.957Z,13.10
2023-02-17T22:49:21.289Z,8.90
2023-02-17T22:51:49.557Z,8.50
2023-02-17T22:54:18.077Z,11.20
2023-02-17T22:56:47.475Z,10.87
2023-02-17T22:59:15.335Z,9.40
2023-02-17T23:01:44.031Z,9.77
2023-02-17T23:04:14.209Z,7.13
2023-02-17T23:06:42.772Z,6.83
2023-02-17T23:09:16.993Z,6.47
2023-02-17T23:11:51.146Z,9.00
2023-02-17T23:14:22.872Z,6.77
2023-02-17T23:16:51.109Z,6.57
2023-02-17T23:19:21.551Z,6.20
2023-02-17T23:21:52.710Z,7.43
2023-02-17T23:24:22.867Z,7.23
2023-02-17T23:26:51.906Z,7.23
2023-02-17T23:29:21.809Z,7.03
2023-02-17T23:31:50.179Z,6.77
2023-02-17T23:34:18.435Z,6.60
2023-02-17T23:36:48.157Z,8.00
2023-02-17T23:39:17.258Z,6.20
2023-02-17T23:41:45.415Z,5.77
2023-02-17T23:44:14.869Z,4.23
2023-02-17T23:46:45.761Z,4.60
2023-02-17T23:49:16.467Z,3.70
2023-02-17T23:51:45.134Z,5.23
2023-02-17T23:54:13.450Z,3.47
2023-02-17T23:56:41.874Z,4.30
2023-02-17T23:59:09.968Z,3.53
